sensor_id;sensor_type;location;lat;lon;timestamp;P1;durP1;ratioP1;P2;durP2;ratioP2
46551;SDS011;32278;51.810;4.712;2022-08-19T00:01:36;16.02;;;9.05;;
46551;SDS011;32278;51.810;4.712;2022-08-19T00:04:04;12.18;;;8.43;;
46551;SDS011;32278;51.810;4.712;2022-08-19T00:06:33;11.73;;;7.72;;
46551;SDS011;32278;51.810;4.712;2022-08-19T00:09:00;15.00;;;8.23;;
46551;SDS011;32278;51.810;4.712;2022-08-19T00:11:27;13.63;;;7.82;;
46551;SDS011;32278;51.810;4.712;2022-08-19T00:13:54;11.20;;;7.45;;
46551;SDS011;32278;51.810;4.712;2022-08-19T00:16:21;10.55;;;6.90;;
46551;SDS011;32278;51.810;4.712;2022-08-19T00:18:48;12.52;;;7.35;;
46551;SDS011;32278;51.810;4.712;2022-08-19T00:21:14;13.50;;;7.53;;
46551;SDS011;32278;51.810;4.712;2022-08-19T00:23:40;10.73;;;7.38;;
46551;SDS011;32278;51.810;4.712;2022-08-19T00:26:07;14.65;;;8.15;;
46551;SDS011;32278;51.810;4.712;2022-08-19T00:28:34;11.25;;;7.70;;
46551;SDS011;32278;51.810;4.712;2022-08-19T00:31:00;14.07;;;8.40;;
46551;SDS011;32278;51.810;4.712;2022-08-19T00:33:29;15.38;;;8.45;;
46551;SDS011;32278;51.810;4.712;2022-08-19T00:35:57;13.05;;;8.30;;
46551;SDS011;32278;51.810;4.712;2022-08-19T00:38:23;12.98;;;8.40;;
46551;SDS011;32278;51.810;4.712;2022-08-19T00:40:49;11.48;;;7.72;;
46551;SDS011;32278;51.810;4.712;2022-08-19T00:43:17;13.77;;;8.05;;
46551;SDS011;32278;51.810;4.712;2022-08-19T00:45:46;11.82;;;8.15;;
46551;SDS011;32278;51.810;4.712;2022-08-19T00:48:12;10.98;;;8.20;;
46551;SDS011;32278;51.810;4.712;2022-08-19T00:50:39;11.43;;;7.60;;
46551;SDS011;32278;51.810;4.712;2022-08-19T00:53:08;13.18;;;8.50;;
46551;SDS011;32278;51.810;4.712;2022-08-19T00:55:38;11.18;;;7.55;;
46551;SDS011;32278;51.810;4.712;2022-08-19T00:58:07;11.68;;;7.75;;
46551;SDS011;32278;51.810;4.712;2022-08-19T01:00:37;11.75;;;7.85;;
46551;SDS011;32278;51.810;4.712;2022-08-19T01:03:05;13.73;;;8.18;;
46551;SDS011;32278;51.810;4.712;2022-08-19T01:05:33;14.80;;;8.20;;
46551;SDS011;32278;51.810;4.712;2022-08-19T01:08:00;12.40;;;8.07;;
46551;SDS011;32278;51.810;4.712;2022-08-19T01:10:30;11.88;;;7.57;;
46551;SDS011;32278;51.810;4.712;2022-08-19T01:12:58;13.20;;;8.02;;
46551;SDS011;32278;51.810;4.712;2022-08-19T01:15:27;16.20;;;7.70;;
46551;SDS011;32278;51.810;4.712;2022-08-19T01:17:56;14.90;;;8.27;;
46551;SDS011;32278;51.810;4.712;2022-08-19T01:20:24;15.00;;;9.05;;
46551;SDS011;32278;51.810;4.712;2022-08-19T01:22:54;16.98;;;9.20;;
46551;SDS011;32278;51.810;4.712;2022-08-19T01:25:24;15.43;;;8.75;;
46551;SDS011;32278;51.810;4.712;2022-08-19T01:28:21;14.10;;;9.05;;
46551;SDS011;32278;51.810;4.712;2022-08-19T01:30:50;19.50;;;9.82;;
46551;SDS011;32278;51.810;4.712;2022-08-19T01:33:17;19.15;;;9.90;;
46551;SDS011;32278;51.810;4.712;2022-08-19T01:35:44;16.27;;;9.48;;
46551;SDS011;32278;51.810;4.712;2022-08-19T01:38:19;15.93;;;10.07;;
46551;SDS011;32278;51.810;4.712;2022-08-19T01:40:47;17.80;;;11.05;;
46551;SDS011;32278;51.810;4.712;2022-08-19T01:43:12;20.00;;;11.05;;
46551;SDS011;32278;51.810;4.712;2022-08-19T01:45:39;19.38;;;12.25;;
46551;SDS011;32278;51.810;4.712;2022-08-19T01:48:05;21.98;;;12.93;;
46551;SDS011;32278;51.810;4.712;2022-08-19T01:50:31;20.65;;;12.63;;
46551;SDS011;32278;51.810;4.712;2022-08-19T01:52:58;22.95;;;11.48;;
46551;SDS011;32278;51.810;4.712;2022-08-19T01:55:25;19.35;;;12.10;;
46551;SDS011;32278;51.810;4.712;2022-08-19T01:57:51;25.88;;;13.10;;
46551;SDS011;32278;51.810;4.712;2022-08-19T02:00:21;20.92;;;13.70;;
46551;SDS011;32278;51.810;4.712;2022-08-19T02:02:48;23.60;;;12.88;;
46551;SDS011;32278;51.810;4.712;2022-08-19T02:05:14;20.20;;;12.65;;
46551;SDS011;32278;51.810;4.712;2022-08-19T02:07:41;18.95;;;11.95;;
46551;SDS011;32278;51.810;4.712;2022-08-19T02:10:08;26.65;;;12.85;;
46551;SDS011;32278;51.810;4.712;2022-08-19T02:12:36;23.23;;;12.93;;
46551;SDS011;32278;51.810;4.712;2022-08-19T02:15:02;21.38;;;12.77;;
46551;SDS011;32278;51.810;4.712;2022-08-19T02:17:29;24.25;;;13.48;;
46551;SDS011;32278;51.810;4.712;2022-08-19T02:19:55;24.95;;;13.48;;
46551;SDS011;32278;51.810;4.712;2022-08-19T02:22:21;25.27;;;13.63;;
46551;SDS011;32278;51.810;4.712;2022-08-19T02:24:47;24.67;;;14.05;;
46551;SDS011;32278;51.810;4.712;2022-08-19T02:27:13;25.80;;;15.10;;
46551;SDS011;32278;51.810;4.712;2022-08-19T02:29:39;27.33;;;16.15;;
46551;SDS011;32278;51.810;4.712;2022-08-19T02:32:06;33.15;;;17.92;;
46551;SDS011;32278;51.810;4.712;2022-08-19T02:34:32;33.80;;;17.33;;
46551;SDS011;32278;51.810;4.712;2022-08-19T02:36:58;33.42;;;17.17;;
46551;SDS011;32278;51.810;4.712;2022-08-19T02:39:24;35.05;;;17.77;;
46551;SDS011;32278;51.810;4.712;2022-08-19T02:41:49;38.72;;;18.40;;
46551;SDS011;32278;51.810;4.712;2022-08-19T02:44:15;36.13;;;17.42;;
46551;SDS011;32278;51.810;4.712;2022-08-19T02:46:41;33.40;;;16.90;;
46551;SDS011;32278;51.810;4.712;2022-08-19T02:49:07;38.50;;;17.15;;
46551;SDS011;32278;51.810;4.712;2022-08-19T02:51:37;40.10;;;19.70;;
46551;SDS011;32278;51.810;4.712;2022-08-19T02:54:05;34.40;;;17.83;;
46551;SDS011;32278;51.810;4.712;2022-08-19T02:56:33;33.75;;;18.17;;
46551;SDS011;32278;51.810;4.712;2022-08-19T02:59:00;41.30;;;17.67;;
46551;SDS011;32278;51.810;4.712;2022-08-19T03:01:28;32.35;;;17.05;;
46551;SDS011;32278;51.810;4.712;2022-08-19T03:03:58;34.55;;;16.90;;
46551;SDS011;32278;51.810;4.712;2022-08-19T03:06:26;38.83;;;17.92;;
46551;SDS011;32278;51.810;4.712;2022-08-19T03:08:53;36.33;;;16.88;;
46551;SDS011;32278;51.810;4.712;2022-08-19T03:11:22;34.85;;;18.15;;
46551;SDS011;32278;51.810;4.712;2022-08-19T03:13:53;32.63;;;16.98;;
46551;SDS011;32278;51.810;4.712;2022-08-19T03:16:20;35.83;;;18.52;;
46551;SDS011;32278;51.810;4.712;2022-08-19T03:18:47;46.30;;;20.20;;
46551;SDS011;32278;51.810;4.712;2022-08-19T03:21:19;40.80;;;19.40;;
46551;SDS011;32278;51.810;4.712;2022-08-19T03:23:47;52.08;;;21.80;;
46551;SDS011;32278;51.810;4.712;2022-08-19T03:26:13;47.15;;;22.45;;
46551;SDS011;32278;51.810;4.712;2022-08-19T03:28:43;54.30;;;24.75;;
46551;SDS011;32278;51.810;4.712;2022-08-19T03:31:10;54.22;;;24.45;;
46551;SDS011;32278;51.810;4.712;2022-08-19T03:33:37;63.72;;;25.35;;
46551;SDS011;32278;51.810;4.712;2022-08-19T03:36:04;56.78;;;22.80;;
46551;SDS011;32278;51.810;4.712;2022-08-19T03:38:53;55.58;;;25.70;;
46551;SDS011;32278;51.810;4.712;2022-08-19T03:41:24;58.47;;;27.73;;
46551;SDS011;32278;51.810;4.712;2022-08-19T03:43:55;58.05;;;27.58;;
46551;SDS011;32278;51.810;4.712;2022-08-19T03:46:25;65.70;;;28.08;;
46551;SDS011;32278;51.810;4.712;2022-08-19T03:48:53;67.47;;;28.35;;
46551;SDS011;32278;51.810;4.712;2022-08-19T03:51:25;66.70;;;26.88;;
46551;SDS011;32278;51.810;4.712;2022-08-19T03:53:56;69.75;;;28.58;;
46551;SDS011;32278;51.810;4.712;2022-08-19T03:56:23;60.28;;;26.88;;
46551;SDS011;32278;51.810;4.712;2022-08-19T03:58:50;68.50;;;28.98;;
46551;SDS011;32278;51.810;4.712;2022-08-19T04:01:19;72.35;;;30.13;;
46551;SDS011;32278;51.810;4.712;2022-08-19T04:03:46;74.07;;;30.65;;
46551;SDS011;32278;51.810;4.712;2022-08-19T04:06:15;61.08;;;28.05;;
46551;SDS011;32278;51.810;4.712;2022-08-19T04:08:43;66.90;;;29.95;;
46551;SDS011;32278;51.810;4.712;2022-08-19T04:11:13;66.57;;;27.45;;
46551;SDS011;32278;51.810;4.712;2022-08-19T04:13:41;77.75;;;30.67;;
46551;SDS011;32278;51.810;4.712;2022-08-19T04:16:09;68.22;;;29.65;;
46551;SDS011;32278;51.810;4.712;2022-08-19T04:18:36;77.97;;;31.42;;
46551;SDS011;32278;51.810;4.712;2022-08-19T04:21:04;68.55;;;29.77;;
46551;SDS011;32278;51.810;4.712;2022-08-19T04:23:30;62.13;;;28.77;;
46551;SDS011;32278;51.810;4.712;2022-08-19T04:25:56;66.80;;;28.98;;
46551;SDS011;32278;51.810;4.712;2022-08-19T04:28:22;71.82;;;28.95;;
46551;SDS011;32278;51.810;4.712;2022-08-19T04:30:52;57.17;;;27.42;;
46551;SDS011;32278;51.810;4.712;2022-08-19T04:33:23;64.85;;;28.50;;
46551;SDS011;32278;51.810;4.712;2022-08-19T04:35:50;69.20;;;28.27;;
46551;SDS011;32278;51.810;4.712;2022-08-19T04:38:18;67.85;;;28.38;;
46551;SDS011;32278;51.810;4.712;2022-08-19T04:40:48;67.32;;;29.10;;
46551;SDS011;32278;51.810;4.712;2022-08-19T04:43:34;67.95;;;29.42;;
46551;SDS011;32278;51.810;4.712;2022-08-19T04:46:06;65.90;;;28.42;;
46551;SDS011;32278;51.810;4.712;2022-08-19T04:48:36;64.22;;;28.55;;
46551;SDS011;32278;51.810;4.712;2022-08-19T04:51:05;61.88;;;26.15;;
46551;SDS011;32278;51.810;4.712;2022-08-19T04:53:32;61.03;;;28.70;;
46551;SDS011;32278;51.810;4.712;2022-08-19T04:56:03;66.47;;;29.25;;
46551;SDS011;32278;51.810;4.712;2022-08-19T04:58:30;64.60;;;26.98;;
46551;SDS011;32278;51.810;4.712;2022-08-19T05:00:56;62.20;;;27.05;;
46551;SDS011;32278;51.810;4.712;2022-08-19T05:03:23;60.63;;;27.98;;
46551;SDS011;32278;51.810;4.712;2022-08-19T05:05:48;59.75;;;25.55;;
46551;SDS011;32278;51.810;4.712;2022-08-19T05:08:15;67.20;;;25.25;;
46551;SDS011;32278;51.810;4.712;2022-08-19T05:10:49;58.08;;;23.38;;
46551;SDS011;32278;51.810;4.712;2022-08-19T05:13:16;51.33;;;22.50;;
46551;SDS011;32278;51.810;4.712;2022-08-19T05:15:43;53.83;;;22.73;;
46551;SDS011;32278;51.810;4.712;2022-08-19T05:18:17;51.17;;;21.77;;
46551;SDS011;32278;51.810;4.712;2022-08-19T05:21:05;55.50;;;23.48;;
46551;SDS011;32278;51.810;4.712;2022-08-19T05:23:50;58.25;;;21.80;;
46551;SDS011;32278;51.810;4.712;2022-08-19T05:26:16;53.25;;;21.52;;
46551;SDS011;32278;51.810;4.712;2022-08-19T05:28:41;50.35;;;20.77;;
46551;SDS011;32278;51.810;4.712;2022-08-19T05:31:07;54.58;;;21.40;;
46551;SDS011;32278;51.810;4.712;2022-08-19T05:33:33;44.08;;;21.33;;
46551;SDS011;32278;51.810;4.712;2022-08-19T05:35:58;54.38;;;21.55;;
46551;SDS011;32278;51.810;4.712;2022-08-19T05:38:25;52.17;;;21.17;;
46551;SDS011;32278;51.810;4.712;2022-08-19T05:40:55;54.67;;;22.75;;
46551;SDS011;32278;51.810;4.712;2022-08-19T05:43:20;50.08;;;21.13;;
46551;SDS011;32278;51.810;4.712;2022-08-19T05:45:46;48.83;;;20.90;;
46551;SDS011;32278;51.810;4.712;2022-08-19T05:48:12;52.80;;;22.58;;
46551;SDS011;32278;51.810;4.712;2022-08-19T05:50:39;51.80;;;22.05;;
46551;SDS011;32278;51.810;4.712;2022-08-19T05:53:05;56.10;;;22.73;;
46551;SDS011;32278;51.810;4.712;2022-08-19T05:55:33;49.38;;;20.70;;
46551;SDS011;32278;51.810;4.712;2022-08-19T05:58:00;52.65;;;23.27;;
46551;SDS011;32278;51.810;4.712;2022-08-19T06:00:26;46.67;;;20.92;;
46551;SDS011;32278;51.810;4.712;2022-08-19T06:02:52;57.67;;;23.08;;
46551;SDS011;32278;51.810;4.712;2022-08-19T06:05:19;52.47;;;22.05;;
46551;SDS011;32278;51.810;4.712;2022-08-19T06:07:45;51.75;;;21.98;;
46551;SDS011;32278;51.810;4.712;2022-08-19T06:10:10;50.33;;;22.02;;
46551;SDS011;32278;51.810;4.712;2022-08-19T06:12:36;45.45;;;21.35;;
46551;SDS011;32278;51.810;4.712;2022-08-19T06:15:06;49.47;;;21.65;;
46551;SDS011;32278;51.810;4.712;2022-08-19T06:17:34;49.13;;;20.67;;
46551;SDS011;32278;51.810;4.712;2022-08-19T06:20:00;41.42;;;20.38;;
46551;SDS011;32278;51.810;4.712;2022-08-19T06:22:31;52.67;;;20.83;;
46551;SDS011;32278;51.810;4.712;2022-08-19T06:25:02;44.10;;;21.88;;
46551;SDS011;32278;51.810;4.712;2022-08-19T06:27:28;42.35;;;20.00;;
46551;SDS011;32278;51.810;4.712;2022-08-19T06:29:55;44.00;;;20.27;;
46551;SDS011;32278;51.810;4.712;2022-08-19T06:32:30;42.67;;;20.33;;
46551;SDS011;32278;51.810;4.712;2022-08-19T06:34:59;46.80;;;21.05;;
46551;SDS011;32278;51.810;4.712;2022-08-19T06:37:25;46.15;;;20.98;;
46551;SDS011;32278;51.810;4.712;2022-08-19T06:39:50;49.40;;;21.85;;
46551;SDS011;32278;51.810;4.712;2022-08-19T06:42:16;48.08;;;19.75;;
46551;SDS011;32278;51.810;4.712;2022-08-19T06:44:48;44.47;;;19.63;;
46551;SDS011;32278;51.810;4.712;2022-08-19T06:47:15;47.65;;;21.70;;
46551;SDS011;32278;51.810;4.712;2022-08-19T06:49:43;43.17;;;17.92;;
46551;SDS011;32278;51.810;4.712;2022-08-19T06:52:09;36.92;;;17.80;;
46551;SDS011;32278;51.810;4.712;2022-08-19T06:54:46;39.60;;;17.73;;
46551;SDS011;32278;51.810;4.712;2022-08-19T06:57:20;40.03;;;18.40;;
46551;SDS011;32278;51.810;4.712;2022-08-19T06:59:46;37.00;;;18.15;;
46551;SDS011;32278;51.810;4.712;2022-08-19T07:02:11;38.10;;;17.60;;
46551;SDS011;32278;51.810;4.712;2022-08-19T07:04:37;35.72;;;18.10;;
46551;SDS011;32278;51.810;4.712;2022-08-19T07:07:13;34.03;;;16.58;;
46551;SDS011;32278;51.810;4.712;2022-08-19T07:09:41;35.15;;;17.92;;
46551;SDS011;32278;51.810;4.712;2022-08-19T07:12:08;37.70;;;18.02;;
46551;SDS011;32278;51.810;4.712;2022-08-19T07:14:36;29.92;;;16.15;;
46551;SDS011;32278;51.810;4.712;2022-08-19T07:17:07;29.80;;;15.43;;
46551;SDS011;32278;51.810;4.712;2022-08-19T07:19:34;26.60;;;14.77;;
46551;SDS011;32278;51.810;4.712;2022-08-19T07:22:02;37.47;;;15.40;;
46551;SDS011;32278;51.810;4.712;2022-08-19T07:24:30;27.50;;;15.18;;
46551;SDS011;32278;51.810;4.712;2022-08-19T07:27:05;32.95;;;15.60;;
46551;SDS011;32278;51.810;4.712;2022-08-19T07:29:32;32.20;;;15.45;;
46551;SDS011;32278;51.810;4.712;2022-08-19T07:31:59;29.60;;;13.63;;
46551;SDS011;32278;51.810;4.712;2022-08-19T07:34:32;33.78;;;15.45;;
46551;SDS011;32278;51.810;4.712;2022-08-19T07:37:02;29.27;;;14.40;;
46551;SDS011;32278;51.810;4.712;2022-08-19T07:39:30;19.02;;;11.52;;
46551;SDS011;32278;51.810;4.712;2022-08-19T07:41:58;22.90;;;12.00;;
46551;SDS011;32278;51.810;4.712;2022-08-19T07:44:25;26.27;;;12.95;;
46551;SDS011;32278;51.810;4.712;2022-08-19T07:46:55;27.13;;;13.20;;
46551;SDS011;32278;51.810;4.712;2022-08-19T07:49:27;26.45;;;11.82;;
46551;SDS011;32278;51.810;4.712;2022-08-19T07:51:54;24.98;;;11.77;;
46551;SDS011;32278;51.810;4.712;2022-08-19T07:54:23;24.63;;;11.90;;
46551;SDS011;32278;51.810;4.712;2022-08-19T07:56:49;23.85;;;10.95;;
46551;SDS011;32278;51.810;4.712;2022-08-19T07:59:16;29.08;;;11.93;;
46551;SDS011;32278;51.810;4.712;2022-08-19T08:01:45;21.67;;;11.68;;
46551;SDS011;32278;51.810;4.712;2022-08-19T08:04:12;23.70;;;10.65;;
46551;SDS011;32278;51.810;4.712;2022-08-19T08:06:57;24.40;;;11.85;;
46551;SDS011;32278;51.810;4.712;2022-08-19T08:09:42;23.42;;;10.02;;
46551;SDS011;32278;51.810;4.712;2022-08-19T08:12:14;20.83;;;11.32;;
46551;SDS011;32278;51.810;4.712;2022-08-19T08:14:49;19.77;;;11.38;;
46551;SDS011;32278;51.810;4.712;2022-08-19T08:17:17;22.63;;;11.60;;
46551;SDS011;32278;51.810;4.712;2022-08-19T08:19:46;21.75;;;10.88;;
46551;SDS011;32278;51.810;4.712;2022-08-19T08:22:14;17.95;;;10.23;;
46551;SDS011;32278;51.810;4.712;2022-08-19T08:25:07;21.02;;;11.48;;
46551;SDS011;32278;51.810;4.712;2022-08-19T08:27:42;19.38;;;10.73;;
46551;SDS011;32278;51.810;4.712;2022-08-19T08:30:09;18.35;;;11.13;;
46551;SDS011;32278;51.810;4.712;2022-08-19T08:32:37;20.80;;;10.30;;
46551;SDS011;32278;51.810;4.712;2022-08-19T08:35:05;16.67;;;10.02;;
46551;SDS011;32278;51.810;4.712;2022-08-19T08:37:32;18.75;;;10.50;;
46551;SDS011;32278;51.810;4.712;2022-08-19T08:39:58;24.17;;;11.20;;
46551;SDS011;32278;51.810;4.712;2022-08-19T08:42:25;18.17;;;10.20;;
46551;SDS011;32278;51.810;4.712;2022-08-19T08:44:58;17.65;;;10.30;;
46551;SDS011;32278;51.810;4.712;2022-08-19T08:47:29;19.95;;;10.80;;
46551;SDS011;32278;51.810;4.712;2022-08-19T08:50:06;19.15;;;12.35;;
46551;SDS011;32278;51.810;4.712;2022-08-19T08:52:43;17.25;;;9.68;;
46551;SDS011;32278;51.810;4.712;2022-08-19T08:55:17;21.02;;;10.55;;
46551;SDS011;32278;51.810;4.712;2022-08-19T09:00:18;24.13;;;12.25;;
46551;SDS011;32278;51.810;4.712;2022-08-19T09:02:46;18.95;;;9.75;;
46551;SDS011;32278;51.810;4.712;2022-08-19T09:07:53;17.13;;;9.48;;
46551;SDS011;32278;51.810;4.712;2022-08-19T09:10:37;13.10;;;9.63;;
46551;SDS011;32278;51.810;4.712;2022-08-19T09:13:08;14.93;;;9.13;;
46551;SDS011;32278;51.810;4.712;2022-08-19T09:15:45;13.45;;;8.77;;
46551;SDS011;32278;51.810;4.712;2022-08-19T09:18:14;24.88;;;9.77;;
46551;SDS011;32278;51.810;4.712;2022-08-19T09:20:41;16.38;;;8.60;;
46551;SDS011;32278;51.810;4.712;2022-08-19T09:23:07;16.70;;;7.65;;
46551;SDS011;32278;51.810;4.712;2022-08-19T09:25:33;13.68;;;7.88;;
46551;SDS011;32278;51.810;4.712;2022-08-19T09:27:59;15.02;;;7.70;;
46551;SDS011;32278;51.810;4.712;2022-08-19T09:30:29;12.13;;;7.90;;
46551;SDS011;32278;51.810;4.712;2022-08-19T09:32:56;16.48;;;7.10;;
46551;SDS011;32278;51.810;4.712;2022-08-19T09:35:23;13.15;;;7.30;;
46551;SDS011;32278;51.810;4.712;2022-08-19T09:37:51;16.30;;;8.32;;
46551;SDS011;32278;51.810;4.712;2022-08-19T09:40:18;10.05;;;7.60;;
46551;SDS011;32278;51.810;4.712;2022-08-19T09:42:45;9.18;;;6.68;;
46551;SDS011;32278;51.810;4.712;2022-08-19T09:45:12;15.05;;;7.35;;
46551;SDS011;32278;51.810;4.712;2022-08-19T09:47:39;9.48;;;6.72;;
46551;SDS011;32278;51.810;4.712;2022-08-19T09:50:06;9.57;;;7.95;;
46551;SDS011;32278;51.810;4.712;2022-08-19T09:52:33;16.00;;;7.30;;
46551;SDS011;32278;51.810;4.712;2022-08-19T09:55:01;13.02;;;6.53;;
46551;SDS011;32278;51.810;4.712;2022-08-19T09:57:28;9.48;;;6.32;;
46551;SDS011;32278;51.810;4.712;2022-08-19T10:00:11;12.05;;;6.10;;
46551;SDS011;32278;51.810;4.712;2022-08-19T10:02:40;15.15;;;6.00;;
46551;SDS011;32278;51.810;4.712;2022-08-19T10:05:06;15.65;;;7.10;;
46551;SDS011;32278;51.810;4.712;2022-08-19T10:07:50;10.85;;;6.07;;
46551;SDS011;32278;51.810;4.712;2022-08-19T10:10:16;9.23;;;6.90;;
46551;SDS011;32278;51.810;4.712;2022-08-19T10:12:42;12.27;;;5.90;;
46551;SDS011;32278;51.810;4.712;2022-08-19T10:15:11;9.85;;;6.20;;
46551;SDS011;32278;51.810;4.712;2022-08-19T10:17:37;10.48;;;5.95;;
46551;SDS011;32278;51.810;4.712;2022-08-19T10:20:03;15.10;;;7.32;;
46551;SDS011;32278;51.810;4.712;2022-08-19T10:22:29;5.97;;;4.68;;
46551;SDS011;32278;51.810;4.712;2022-08-19T10:24:55;13.52;;;5.53;;
46551;SDS011;32278;51.810;4.712;2022-08-19T10:27:21;6.45;;;4.47;;
46551;SDS011;32278;51.810;4.712;2022-08-19T10:29:47;6.25;;;4.18;;
46551;SDS011;32278;51.810;4.712;2022-08-19T10:32:13;6.32;;;4.72;;
46551;SDS011;32278;51.810;4.712;2022-08-19T10:34:38;10.68;;;5.47;;
46551;SDS011;32278;51.810;4.712;2022-08-19T10:37:05;10.40;;;5.47;;
46551;SDS011;32278;51.810;4.712;2022-08-19T10:39:32;9.38;;;4.75;;
46551;SDS011;32278;51.810;4.712;2022-08-19T10:41:59;10.43;;;5.93;;
46551;SDS011;32278;51.810;4.712;2022-08-19T10:44:28;12.82;;;5.78;;
46551;SDS011;32278;51.810;4.712;2022-08-19T10:46:55;11.05;;;6.60;;
46551;SDS011;32278;51.810;4.712;2022-08-19T10:49:20;12.40;;;8.65;;
46551;SDS011;32278;51.810;4.712;2022-08-19T10:51:47;19.67;;;10.55;;
46551;SDS011;32278;51.810;4.712;2022-08-19T10:54:32;16.95;;;10.63;;
46551;SDS011;32278;51.810;4.712;2022-08-19T10:57:16;16.40;;;9.73;;
46551;SDS011;32278;51.810;4.712;2022-08-19T10:59:42;16.92;;;9.30;;
46551;SDS011;32278;51.810;4.712;2022-08-19T11:02:09;20.20;;;9.95;;
46551;SDS011;32278;51.810;4.712;2022-08-19T11:04:37;23.65;;;9.90;;
46551;SDS011;32278;51.810;4.712;2022-08-19T11:07:04;14.15;;;7.95;;
46551;SDS011;32278;51.810;4.712;2022-08-19T11:09:31;12.82;;;7.90;;
46551;SDS011;32278;51.810;4.712;2022-08-19T11:12:02;10.57;;;7.32;;
46551;SDS011;32278;51.810;4.712;2022-08-19T11:14:28;9.13;;;6.55;;
46551;SDS011;32278;51.810;4.712;2022-08-19T11:16:56;11.50;;;5.70;;
46551;SDS011;32278;51.810;4.712;2022-08-19T11:19:22;7.65;;;5.30;;
46551;SDS011;32278;51.810;4.712;2022-08-19T11:21:54;8.77;;;5.47;;
46551;SDS011;32278;51.810;4.712;2022-08-19T11:24:21;6.88;;;5.57;;
46551;SDS011;32278;51.810;4.712;2022-08-19T11:26:50;9.32;;;6.68;;
46551;SDS011;32278;51.810;4.712;2022-08-19T11:29:20;11.55;;;6.90;;
46551;SDS011;32278;51.810;4.712;2022-08-19T11:31:48;14.90;;;8.80;;
46551;SDS011;32278;51.810;4.712;2022-08-19T11:34:15;10.43;;;7.45;;
46551;SDS011;32278;51.810;4.712;2022-08-19T11:36:43;12.05;;;8.98;;
46551;SDS011;32278;51.810;4.712;2022-08-19T11:39:12;10.50;;;7.03;;
46551;SDS011;32278;51.810;4.712;2022-08-19T11:41:39;16.15;;;8.55;;
46551;SDS011;32278;51.810;4.712;2022-08-19T11:44:05;13.98;;;8.15;;
46551;SDS011;32278;51.810;4.712;2022-08-19T11:46:32;9.48;;;7.40;;
46551;SDS011;32278;51.810;4.712;2022-08-19T11:49:00;13.25;;;8.45;;
46551;SDS011;32278;51.810;4.712;2022-08-19T11:51:26;10.35;;;7.05;;
46551;SDS011;32278;51.810;4.712;2022-08-19T11:53:53;11.52;;;6.80;;
46551;SDS011;32278;51.810;4.712;2022-08-19T11:56:20;10.13;;;6.60;;
46551;SDS011;32278;51.810;4.712;2022-08-19T11:58:46;10.35;;;6.38;;
46551;SDS011;32278;51.810;4.712;2022-08-19T12:01:18;10.38;;;7.95;;
46551;SDS011;32278;51.810;4.712;2022-08-19T12:03:45;10.85;;;6.88;;
46551;SDS011;32278;51.810;4.712;2022-08-19T12:06:15;11.90;;;7.93;;
46551;SDS011;32278;51.810;4.712;2022-08-19T12:08:45;15.45;;;8.75;;
46551;SDS011;32278;51.810;4.712;2022-08-19T12:11:12;10.73;;;7.75;;
46551;SDS011;32278;51.810;4.712;2022-08-19T12:13:39;11.20;;;7.60;;
46551;SDS011;32278;51.810;4.712;2022-08-19T12:16:09;9.50;;;7.50;;
46551;SDS011;32278;51.810;4.712;2022-08-19T12:18:37;13.88;;;7.28;;
46551;SDS011;32278;51.810;4.712;2022-08-19T12:21:04;15.45;;;10.00;;
46551;SDS011;32278;51.810;4.712;2022-08-19T12:23:29;16.25;;;10.95;;
46551;SDS011;32278;51.810;4.712;2022-08-19T12:25:55;15.43;;;10.23;;
46551;SDS011;32278;51.810;4.712;2022-08-19T12:28:22;12.80;;;8.95;;
46551;SDS011;32278;51.810;4.712;2022-08-19T12:30:49;10.85;;;7.85;;
46551;SDS011;32278;51.810;4.712;2022-08-19T12:33:16;13.35;;;7.68;;
46551;SDS011;32278;51.810;4.712;2022-08-19T12:35:43;11.75;;;7.78;;
46551;SDS011;32278;51.810;4.712;2022-08-19T12:38:11;12.93;;;7.53;;
46551;SDS011;32278;51.810;4.712;2022-08-19T12:40:38;11.63;;;6.68;;
46551;SDS011;32278;51.810;4.712;2022-08-19T12:43:05;12.02;;;7.53;;
46551;SDS011;32278;51.810;4.712;2022-08-19T12:45:31;10.55;;;7.32;;
46551;SDS011;32278;51.810;4.712;2022-08-19T12:47:57;12.32;;;7.07;;
46551;SDS011;32278;51.810;4.712;2022-08-19T12:50:23;12.90;;;6.72;;
46551;SDS011;32278;51.810;4.712;2022-08-19T12:52:49;10.75;;;6.68;;
46551;SDS011;32278;51.810;4.712;2022-08-19T12:55:15;9.23;;;6.43;;
46551;SDS011;32278;51.810;4.712;2022-08-19T12:57:40;8.80;;;6.57;;
46551;SDS011;32278;51.810;4.712;2022-08-19T13:00:08;9.88;;;5.90;;
46551;SDS011;32278;51.810;4.712;2022-08-19T13:02:37;9.73;;;6.07;;
46551;SDS011;32278;51.810;4.712;2022-08-19T13:05:04;10.35;;;6.40;;
46551;SDS011;32278;51.810;4.712;2022-08-19T13:07:33;8.48;;;5.60;;
46551;SDS011;32278;51.810;4.712;2022-08-19T13:09:59;7.88;;;4.97;;
46551;SDS011;32278;51.810;4.712;2022-08-19T13:12:25;12.05;;;6.05;;
46551;SDS011;32278;51.810;4.712;2022-08-19T13:14:53;10.88;;;5.07;;
46551;SDS011;32278;51.810;4.712;2022-08-19T13:17:19;10.10;;;6.05;;
46551;SDS011;32278;51.810;4.712;2022-08-19T13:19:45;13.15;;;6.03;;
46551;SDS011;32278;51.810;4.712;2022-08-19T13:22:11;10.73;;;6.20;;
46551;SDS011;32278;51.810;4.712;2022-08-19T13:24:37;11.75;;;6.78;;
46551;SDS011;32278;51.810;4.712;2022-08-19T13:27:03;13.15;;;7.68;;
46551;SDS011;32278;51.810;4.712;2022-08-19T13:29:29;12.82;;;7.72;;
46551;SDS011;32278;51.810;4.712;2022-08-19T13:32:13;9.30;;;6.50;;
46551;SDS011;32278;51.810;4.712;2022-08-19T13:34:57;12.40;;;7.05;;
46551;SDS011;32278;51.810;4.712;2022-08-19T13:37:23;12.18;;;5.95;;
46551;SDS011;32278;51.810;4.712;2022-08-19T13:40:06;12.48;;;7.10;;
46551;SDS011;32278;51.810;4.712;2022-08-19T13:42:41;11.20;;;5.82;;
46551;SDS011;32278;51.810;4.712;2022-08-19T13:45:12;12.70;;;6.88;;
46551;SDS011;32278;51.810;4.712;2022-08-19T13:47:40;11.38;;;6.22;;
46551;SDS011;32278;51.810;4.712;2022-08-19T13:50:09;11.07;;;7.13;;
46551;SDS011;32278;51.810;4.712;2022-08-19T13:52:39;10.30;;;7.00;;
46551;SDS011;32278;51.810;4.712;2022-08-19T13:55:05;10.65;;;6.97;;
46551;SDS011;32278;51.810;4.712;2022-08-19T13:57:32;11.57;;;7.28;;
46551;SDS011;32278;51.810;4.712;2022-08-19T13:59:58;12.82;;;7.88;;
46551;SDS011;32278;51.810;4.712;2022-08-19T14:02:24;11.82;;;6.95;;
46551;SDS011;32278;51.810;4.712;2022-08-19T14:04:51;12.20;;;6.97;;
46551;SDS011;32278;51.810;4.712;2022-08-19T14:07:16;9.45;;;5.95;;
46551;SDS011;32278;51.810;4.712;2022-08-19T14:09:42;6.68;;;4.72;;
46551;SDS011;32278;51.810;4.712;2022-08-19T14:12:08;8.38;;;4.32;;
46551;SDS011;32278;51.810;4.712;2022-08-19T14:14:37;8.60;;;5.03;;
46551;SDS011;32278;51.810;4.712;2022-08-19T14:17:07;9.60;;;6.30;;
46551;SDS011;32278;51.810;4.712;2022-08-19T14:19:33;9.77;;;4.82;;
46551;SDS011;32278;51.810;4.712;2022-08-19T14:21:59;7.03;;;4.10;;
46551;SDS011;32278;51.810;4.712;2022-08-19T14:24:24;9.75;;;6.15;;
46551;SDS011;32278;51.810;4.712;2022-08-19T14:26:50;6.63;;;4.85;;
46551;SDS011;32278;51.810;4.712;2022-08-19T14:29:16;7.00;;;4.38;;
46551;SDS011;32278;51.810;4.712;2022-08-19T14:31:42;7.20;;;4.18;;
46551;SDS011;32278;51.810;4.712;2022-08-19T14:34:08;6.00;;;3.88;;
46551;SDS011;32278;51.810;4.712;2022-08-19T14:36:35;7.38;;;3.88;;
46551;SDS011;32278;51.810;4.712;2022-08-19T14:39:01;4.28;;;3.30;;
46551;SDS011;32278;51.810;4.712;2022-08-19T14:41:28;5.57;;;3.10;;